Time;durP1;ratioP1;P1;durP2;ratioP2;P2;SDS_P1;SDS_P2;PMS_P1;PMS_P2;Temp;Humidity;BMP_temperature;BMP_pressure;BME280_temperature;BME280_humidity;BME280_pressure;Samples;Min_cycle;Max_cycle;Signal;HPM_P1;HPM_P2
2022/04/10 00:00:00;;;;;;;5.55;2.50;;;;;;;2.59;74.38;97535.44;5076632;28;20698;-66
2022/04/10 00:02:27;;;;;;;4.07;2.00;;;;;;;2.63;74.49;97549.22;5065749;28;20032;-66
2022/04/10 00:04:54;;;;;;;6.43;2.40;;;;;;;2.63;74.02;97546.53;5066010;28;20658;-66
2022/04/10 00:07:20;;;;;;;6.00;2.10;;;;;;;2.63;74.43;97550.06;5065314;28;20045;-66
2022/04/10 00:09:47;;;;;;;6.20;2.40;;;;;;;2.68;73.93;97549.44;5066837;28;20048;-66
2022/04/10 00:12:13;;;;;;;6.90;2.30;;;;;;;2.73;73.96;97552.38;5065389;28;20040;-66
2022/04/10 00:14:40;;;;;;;4.03;2.30;;;;;;;2.74;74.22;97551.34;5071228;28;20660;-66
2022/04/10 00:17:06;;;;;;;4.28;2.47;;;;;;;2.75;73.13;97547.66;5075212;28;20469;-66
2022/04/10 00:19:33;;;;;;;5.07;2.42;;;;;;;2.76;74.28;97549.28;5066334;28;20124;-66
2022/04/10 00:21:59;;;;;;;5.53;2.30;;;;;;;2.75;72.92;97549.47;5064961;28;20107;-66
2022/04/10 00:24:26;;;;;;;5.85;2.17;;;;;;;2.73;74.33;97553.19;5072449;28;20048;-66
2022/04/10 00:26:53;;;;;;;4.50;1.77;;;;;;;2.62;74.22;97539.56;5073072;28;20048;-66
2022/04/10 00:29:19;;;;;;;5.93;1.90;;;;;;;2.51;74.78;97548.94;5062114;28;20103;-66
2022/04/10 00:31:46;;;;;;;5.20;2.10;;;;;;;2.40;75.47;97542.28;5067537;28;20032;-65
2022/04/10 00:34:13;;;;;;;5.70;2.20;;;;;;;2.32;76.38;97548.63;5072731;28;20608;-64
2022/04/10 00:36:40;;;;;;;5.05;2.17;;;;;;;2.25;76.76;97545.88;5060747;28;20071;-64
2022/04/10 00:39:06;;;;;;;6.93;2.42;;;;;;;2.24;77.32;97544.22;5046654;28;20071;-65
2022/04/10 00:41:34;;;;;;;4.20;2.03;;;;;;;2.37;76.89;97545.34;5043664;28;20127;-65
2022/04/10 00:44:08;;;;;;;4.88;2.75;;;;;;;2.29;76.93;97547.13;5068559;28;20044;-64
2022/04/10 00:46:35;;;;;;;3.63;1.75;;;;;;;2.33;76.75;97551.06;5058578;28;20052;-65
2022/04/10 00:49:04;;;;;;;6.93;2.50;;;;;;;2.10;77.63;97555.84;5063836;28;20048;-64
2022/04/10 00:51:41;;;;;;;6.85;2.53;;;;;;;2.02;78.74;97554.09;5065185;28;20544;-64
2022/04/10 00:54:15;;;;;;;5.30;2.28;;;;;;;2.02;78.72;97549.59;5050974;28;20052;-65
2022/04/10 00:56:43;;;;;;;5.25;2.35;;;;;;;2.04;80.22;97552.09;5043809;28;20048;-65
2022/04/10 00:59:11;;;;;;;5.88;2.70;;;;;;;1.88;81.08;97555.84;5044819;28;20040;-65
2022/04/10 01:01:40;;;;;;;5.72;2.78;;;;;;;1.85;82.23;97551.72;5048013;28;20435;-65
2022/04/10 01:04:26;;;;;;;6.68;2.72;;;;;;;1.86;82.20;97561.38;5060421;28;20044;-65
2022/04/10 01:06:54;;;;;;;5.32;2.78;;;;;;;1.81;82.90;97561.94;5064631;28;20128;-65
2022/04/10 01:09:21;;;;;;;7.00;2.72;;;;;;;1.89;82.24;97563.69;5059061;28;20483;-65
2022/04/10 01:11:48;;;;;;;4.97;3.13;;;;;;;1.85;82.84;97564.25;5054096;28;20492;-65
2022/04/10 01:14:15;;;;;;;4.28;2.15;;;;;;;1.76;83.45;97564.38;5056884;28;20044;-65
2022/04/10 01:16:42;;;;;;;6.25;2.80;;;;;;;1.69;83.42;97563.47;5042899;28;20059;-65
2022/04/10 01:19:11;;;;;;;5.35;2.80;;;;;;;1.57;83.78;97560.47;5060127;28;20036;-65
2022/04/10 01:21:46;;;;;;;7.32;3.08;;;;;;;1.51;84.03;97567.41;5069081;28;20041;-65
2022/04/10 01:24:14;;;;;;;6.72;3.70;;;;;;;1.51;84.01;97563.91;5061726;28;20075;-65
2022/04/10 01:26:43;;;;;;;5.93;3.28;;;;;;;1.49;83.35;97565.94;5040211;28;20484;-65
2022/04/10 01:29:13;;;;;;;4.97;2.90;;;;;;;1.43;82.95;97568.34;5052314;28;20725;-65
2022/04/10 01:31:44;;;;;;;8.75;3.22;;;;;;;1.43;82.90;97568.34;5045131;28;20397;-64
2022/04/10 01:34:15;;;;;;;;;;;;;;;1.49;82.33;97571.28;5057918;28;20119;-64
2022/04/10 01:36:44;;;;;;;6.70;2.92;;;;;;;1.54;81.75;97566.19;5050268;28;19928;-64
2022/04/10 01:39:15;;;;;;;8.40;2.92;;;;;;;1.53;82.25;97561.88;5048215;28;20040;-64
2022/04/10 01:41:42;;;;;;;5.32;2.67;;;;;;;1.55;81.58;97565.19;5052147;28;20068;-64
2022/04/10 01:44:09;;;;;;;7.00;3.13;;;;;;;1.46;81.80;97568.97;5059371;28;20048;-64
2022/04/10 01:46:36;;;;;;;4.85;2.65;;;;;;;1.43;81.67;97572.84;5041873;28;20120;-64
2022/04/10 01:49:06;;;;;;;5.35;3.10;;;;;;;1.40;81.42;97570.56;5043822;28;20106;-64
2022/04/10 01:51:33;;;;;;;6.47;3.03;;;;;;;1.37;81.61;97569.06;5045536;28;20041;-64
2022/04/10 01:54:00;;;;;;;7.63;4.38;;;;;;;1.32;81.39;97568.81;5046791;28;20125;-66
2022/04/10 01:56:27;;;;;;;5.72;3.45;;;;;;;1.28;81.91;97572.88;5049224;28;20048;-64
2022/04/10 01:58:54;;;;;;;8.73;3.30;;;;;;;1.23;81.71;97562.78;5067218;28;20083;-64
2022/04/10 02:01:22;;;;;;;6.18;2.90;;;;;;;1.22;81.95;97568.31;5066361;28;20049;-64
2022/04/10 02:03:52;;;;;;;7.55;4.28;;;;;;;1.26;81.09;97569.59;5047588;28;20143;-64
2022/04/10 02:06:19;;;;;;;8.18;4.07;;;;;;;1.35;81.11;97568.47;5060512;28;20094;-64
2022/04/10 02:08:49;;;;;;;6.15;3.45;;;;;;;1.23;81.25;97565.44;5067859;28;20044;-64
2022/04/10 02:11:19;;;;;;;7.05;3.38;;;;;;;1.15;82.08;97571.69;5065905;28;20033;-64
2022/04/10 02:13:48;;;;;;;8.18;3.58;;;;;;;1.07;82.21;97566.47;5047730;28;20103;-64
2022/04/10 02:16:19;;;;;;;6.38;3.45;;;;;;;1.07;81.49;97565.66;5047231;28;20079;-64
2022/04/10 02:18:47;;;;;;;6.32;4.10;;;;;;;1.11;81.33;97570.41;5069399;28;20612;-64
2022/04/10 02:21:15;;;;;;;6.80;3.85;;;;;;;1.12;81.81;97572.09;5070842;28;20694;-64
2022/04/10 02:23:43;;;;;;;7.18;3.25;;;;;;;1.12;81.51;97569.44;5066917;28;20052;-64
2022/04/10 02:26:10;;;;;;;7.35;3.90;;;;;;;1.14;81.78;97566.56;5064333;28;20047;-64
2022/04/10 02:28:39;;;;;;;6.65;4.03;;;;;;;1.19;81.31;97576.66;5046450;28;20044;-64
2022/04/10 02:31:06;;;;;;;5.20;3.50;;;;;;;1.14;81.81;97572.72;5063319;28;20036;-64
2022/04/10 02:33:34;;;;;;;6.18;3.47;;;;;;;1.14;81.59;97569.25;5066762;28;20041;-64
2022/04/10 02:36:01;;;;;;;9.75;4.60;;;;;;;1.12;81.00;97566.75;5065801;28;20048;-64
2022/04/10 02:38:28;;;;;;;5.18;3.65;;;;;;;1.16;81.63;97568.03;5067067;28;20052;-64
2022/04/10 02:40:55;;;;;;;7.22;3.42;;;;;;;1.06;81.60;97578.16;5055626;28;20044;-64
2022/04/10 02:43:23;;;;;;;8.55;4.20;;;;;;;1.04;81.62;97569.53;5068472;28;20440;-64
2022/04/10 02:45:55;;;;;;;8.65;4.10;;;;;;;1.07;81.98;97573.66;5070464;28;20055;-64
2022/04/10 02:48:22;;;;;;;5.43;3.42;;;;;;;1.03;81.20;97576.69;5064824;28;20071;-64
2022/04/10 02:50:49;;;;;;;5.93;4.03;;;;;;;1.05;81.38;97576.50;5053640;28;20037;-64
2022/04/10 02:53:16;;;;;;;8.15;4.88;;;;;;;1.00;80.92;97582.38;5059649;28;20443;-64
2022/04/10 02:55:43;;;;;;;7.93;3.58;;;;;;;1.01;81.18;97580.56;5066349;28;20608;-64
2022/04/10 02:58:09;;;;;;;6.60;3.63;;;;;;;1.01;81.36;97585.88;5066448;28;20040;-64
2022/04/10 03:00:37;;;;;;;6.43;4.38;;;;;;;1.05;80.99;97587.19;5053821;28;20037;-64
2022/04/10 03:03:04;;;;;;;8.55;3.97;;;;;;;1.00;81.01;97592.25;5064935;28;20146;-64
2022/04/10 03:05:30;;;;;;;5.70;4.00;;;;;;;1.06;80.54;97588.00;5067555;28;20044;-64
2022/04/10 03:07:57;;;;;;;6.43;4.25;;;;;;;1.02;80.20;97583.03;5065094;28;20397;-64
2022/04/10 03:10:24;;;;;;;6.75;4.30;;;;;;;0.95;81.54;97583.97;5054362;28;20079;-64
2022/04/10 03:12:51;;;;;;;6.63;4.32;;;;;;;0.90;80.97;97587.19;5065163;28;20645;-64
2022/04/10 03:15:18;;;;;;;7.20;3.65;;;;;;;0.88;81.04;97591.84;5067007;28;20139;-64
2022/04/10 03:17:44;;;;;;;7.57;4.05;;;;;;;0.89;81.02;97594.34;5046536;28;20060;-64
2022/04/10 03:20:11;;;;;;;7.72;4.15;;;;;;;0.77;81.54;97585.16;5070772;28;20061;-64
2022/04/10 03:22:40;;;;;;;9.27;4.35;;;;;;;0.70;81.95;97597.56;5046722;28;20041;-64
2022/04/10 03:25:07;;;;;;;7.80;3.90;;;;;;;0.66;82.08;97598.94;5059386;28;20082;-64
2022/04/10 03:27:35;;;;;;;8.32;3.90;;;;;;;0.56;83.08;97592.06;5044470;28;20080;-64
2022/04/10 03:30:04;;;;;;;7.88;3.90;;;;;;;0.45;83.42;97595.16;5062334;28;20052;-64
2022/04/10 03:32:30;;;;;;;6.68;4.07;;;;;;;0.47;83.02;97593.13;5064928;28;20064;-64
2022/04/10 03:34:57;;;;;;;6.47;3.72;;;;;;;0.43;83.24;97598.00;5056834;28;20515;-65
2022/04/10 03:37:24;;;;;;;6.93;3.80;;;;;;;0.43;83.70;97597.16;5065615;28;20044;-64
2022/04/10 03:39:51;;;;;;;6.28;3.92;;;;;;;0.29;83.93;97607.59;5065086;28;20040;-64
2022/04/10 03:42:17;;;;;;;7.70;4.10;;;;;;;0.43;83.82;97610.47;5057680;28;20049;-64
2022/04/10 03:44:44;;;;;;;5.93;3.92;;;;;;;0.25;84.39;97616.97;5066491;28;20055;-64
2022/04/10 03:47:11;;;;;;;8.23;4.82;;;;;;;0.12;85.05;97618.38;5064509;28;20705;-64
2022/04/10 03:49:38;;;;;;;7.07;4.63;;;;;;;0.11;85.02;97619.41;5066183;28;20411;-64
2022/04/10 03:52:05;;;;;;;10.45;4.43;;;;;;;0.17;84.74;97619.69;5053080;28;20048;-64
2022/04/10 03:54:32;;;;;;;7.07;4.43;;;;;;;0.10;84.89;97628.41;5046276;28;20199;-64
2022/04/10 03:56:59;;;;;;;7.32;4.28;;;;;;;0.17;85.00;97639.16;5056077;28;20094;-64
2022/04/10 03:59:26;;;;;;;7.82;5.10;;;;;;;0.14;85.33;97631.53;5064251;28;20053;-64
2022/04/10 04:01:53;;;;;;;7.68;4.85;;;;;;;0.12;84.86;97630.91;5060182;28;20148;-64
2022/04/10 04:04:21;;;;;;;8.55;4.70;;;;;;;0.17;85.27;97633.00;5056118;28;20056;-64
2022/04/10 04:06:48;;;;;;;9.35;4.80;;;;;;;0.18;85.35;97635.50;5049872;28;20040;-64
2022/04/10 04:09:16;;;;;;;7.95;4.35;;;;;;;0.22;85.28;97635.97;5050438;28;20060;-64
2022/04/10 04:11:43;;;;;;;9.13;4.97;;;;;;;0.23;85.25;97638.44;5053478;28;20121;-64
2022/04/10 04:14:11;;;;;;;6.85;4.40;;;;;;;0.23;84.95;97642.97;5055288;28;20107;-64
2022/04/10 04:16:38;;;;;;;8.80;4.68;;;;;;;0.34;84.93;97647.03;5052013;28;20043;-64
2022/04/10 04:19:05;;;;;;;8.95;5.00;;;;;;;0.27;85.08;97648.75;5075920;28;20070;-64
2022/04/10 04:21:31;;;;;;;7.22;4.43;;;;;;;0.26;85.03;97653.25;5077143;28;20078;-64
2022/04/10 04:23:58;;;;;;;10.30;4.95;;;;;;;0.32;85.72;97654.34;5065056;28;20052;-64
2022/04/10 04:26:25;;;;;;;9.70;4.90;;;;;;;0.30;85.58;97656.38;5062627;28;20060;-64
2022/04/10 04:28:52;;;;;;;7.13;4.35;;;;;;;0.30;85.22;97657.22;5063308;28;20037;-64
2022/04/10 04:31:21;;;;;;;7.70;4.75;;;;;;;0.37;85.15;97660.00;5063346;28;20530;-64
2022/04/10 04:33:48;;;;;;;11.60;4.55;;;;;;;0.35;85.27;97662.84;5065357;28;20048;-64
2022/04/10 04:36:16;;;;;;;7.80;4.72;;;;;;;0.37;85.07;97668.81;5058883;28;20539;-64
2022/04/10 04:38:43;;;;;;;9.82;4.75;;;;;;;0.41;85.37;97671.97;5044879;28;20076;-64
2022/04/10 04:41:11;;;;;;;7.10;4.53;;;;;;;0.43;85.06;97664.59;5058413;28;20049;-64
2022/04/10 04:43:38;;;;;;;8.27;5.25;;;;;;;0.44;84.85;97670.78;5045390;28;20091;-64
2022/04/10 04:46:04;;;;;;;7.32;4.50;;;;;;;0.46;85.05;97666.91;5044958;28;20128;-64
2022/04/10 04:48:31;;;;;;;7.63;5.22;;;;;;;0.46;84.99;97672.25;5025894;28;20099;-64
2022/04/10 04:51:00;;;;;;;10.25;4.68;;;;;;;0.53;85.09;97675.00;5044504;28;20126;-64
2022/04/10 04:53:27;;;;;;;8.45;4.70;;;;;;;0.52;84.93;97673.38;5054313;28;20128;-64
2022/04/10 04:55:53;;;;;;;8.30;4.70;;;;;;;0.55;85.09;97682.84;5053527;28;20623;-64
2022/04/10 04:58:24;;;;;;;12.38;5.15;;;;;;;0.57;85.12;97686.13;5060011;28;20052;-64
2022/04/10 05:00:50;;;;;;;11.85;5.00;;;;;;;0.61;84.62;97684.75;5052994;28;20053;-64
2022/04/10 05:03:19;;;;;;;10.52;4.82;;;;;;;0.69;85.29;97684.69;5058885;28;20205;-64
2022/04/10 05:05:46;;;;;;;9.45;4.90;;;;;;;0.71;84.64;97698.69;5060835;28;20050;-64
2022/04/10 05:08:22;;;;;;;9.52;4.57;;;;;;;0.80;84.23;97704.75;5058467;28;20056;-64
2022/04/10 05:10:51;;;;;;;6.88;4.20;;;;;;;0.82;84.77;97700.09;5059294;28;20040;-64
2022/04/10 05:13:19;;;;;;;6.20;4.18;;;;;;;0.87;83.31;97705.69;5051478;28;20052;-64
2022/04/10 05:15:46;;;;;;;7.22;4.57;;;;;;;0.90;83.23;97702.66;5049320;28;20053;-64
2022/04/10 05:18:17;;;;;;;8.05;4.38;;;;;;;0.97;82.87;97713.44;5058827;28;20044;-64
2022/04/10 05:20:46;;;;;;;8.20;4.15;;;;;;;1.03;82.99;97712.69;5059468;28;20139;-64
2022/04/10 05:23:18;;;;;;;8.02;4.50;;;;;;;1.06;82.92;97716.03;5054551;28;20648;-64
2022/04/10 05:25:51;;;;;;;9.18;4.97;;;;;;;1.03;83.49;97723.38;5055833;28;20136;-64
2022/04/10 05:28:18;;;;;;;10.00;5.05;;;;;;;1.07;83.30;97726.47;5040462;28;20045;-64
2022/04/10 05:30:46;;;;;;;8.35;5.00;;;;;;;1.11;82.70;97732.31;5046727;28;20189;-64
2022/04/10 05:33:18;;;;;;;11.88;4.65;;;;;;;1.19;82.52;97734.06;5055998;28;20040;-65
2022/04/10 05:35:47;;;;;;;7.45;4.40;;;;;;;1.24;82.26;97737.84;5053335;28;20409;-64
2022/04/10 05:38:14;;;;;;;8.95;4.60;;;;;;;1.27;82.04;97742.81;5060571;28;20044;-64
2022/04/10 05:40:41;;;;;;;8.82;4.75;;;;;;;1.38;81.63;97746.88;5066586;28;20085;-64
2022/04/10 05:43:08;;;;;;;7.90;4.22;;;;;;;1.39;81.73;97745.84;5055247;28;20879;-64
2022/04/10 05:45:35;;;;;;;6.88;4.53;;;;;;;1.48;81.32;97741.25;5059218;28;20037;-64
2022/04/10 05:48:03;;;;;;;7.70;4.25;;;;;;;1.64;81.08;97742.06;5073697;28;20094;-65
2022/04/10 05:50:31;;;;;;;7.78;4.22;;;;;;;1.86;80.06;97748.31;5046836;28;20151;-64
2022/04/10 05:52:58;;;;;;;7.50;4.65;;;;;;;2.02;80.19;97741.91;5051471;28;20067;-64
2022/04/10 05:55:28;;;;;;;6.15;3.70;;;;;;;2.15;79.54;97741.25;5062008;28;20063;-64
2022/04/10 05:58:01;;;;;;;7.55;4.40;;;;;;;2.28;78.56;97748.56;5061125;28;20412;-65
2022/04/10 06:00:28;;;;;;;6.95;3.72;;;;;;;2.32;78.29;97746.38;5050923;28;20045;-65
2022/04/10 06:03:06;;;;;;;8.40;4.30;;;;;;;2.32;77.91;97749.84;5045861;28;20052;-65
2022/04/10 06:05:34;;;;;;;7.43;4.28;;;;;;;2.42;77.44;97748.69;5048039;28;20466;-64
2022/04/10 06:08:08;;;;;;;7.63;3.92;;;;;;;2.52;76.56;97757.25;5068445;28;20126;-66
2022/04/10 06:10:35;;;;;;;5.15;3.35;;;;;;;2.67;76.50;97759.88;5070773;28;20052;-65
2022/04/10 06:13:09;;;;;;;6.20;3.85;;;;;;;2.83;76.73;97773.97;5050389;28;20602;-64
2022/04/10 06:15:50;;;;;;;6.32;3.60;;;;;;;2.80;75.79;97767.16;5062186;28;20048;-64
2022/04/10 06:18:18;;;;;;;7.05;3.88;;;;;;;2.93;75.57;97773.66;5049959;28;20075;-65
2022/04/10 06:20:45;;;;;;;6.53;3.83;;;;;;;2.80;76.39;97772.50;5076670;28;20117;-67
2022/04/10 06:23:12;;;;;;;7.00;4.13;;;;;;;3.04;75.37;97774.97;5050778;28;20080;-65
2022/04/10 06:25:41;;;;;;;6.22;3.65;;;;;;;2.93;74.85;97779.00;5060112;28;20052;-65
2022/04/10 06:28:10;;;;;;;6.88;3.80;;;;;;;3.04;75.45;97777.66;5041582;28;20059;-65
2022/04/10 06:30:43;;;;;;;5.65;4.05;;;;;;;3.09;74.97;97777.91;5060305;28;20504;-66
2022/04/10 06:33:13;;;;;;;7.68;3.70;;;;;;;3.20;74.85;97784.56;5063401;28;20048;-65
2022/04/10 06:35:39;;;;;;;5.80;3.38;;;;;;;3.30;73.61;97786.91;5062314;28;20618;-65
2022/04/10 06:38:07;;;;;;;5.30;3.55;;;;;;;3.28;73.53;97786.28;5054470;28;20051;-65
2022/04/10 06:40:35;;;;;;;8.00;4.03;;;;;;;3.16;74.63;97780.66;5051184;28;20118;-65
2022/04/10 06:43:05;;;;;;;6.30;4.07;;;;;;;3.35;74.24;97774.59;5067021;28;20048;-65
2022/04/10 06:45:51;;;;;;;8.60;4.63;;;;;;;3.27;73.65;97787.31;5048538;28;20582;-65
2022/04/10 06:48:25;;;;;;;5.93;4.18;;;;;;;3.50;73.61;97784.38;5046819;28;20401;-65
2022/04/10 06:50:51;;;;;;;7.75;4.45;;;;;;;3.51;73.31;97786.84;5055583;28;20041;-65
2022/04/10 06:53:25;;;;;;;5.70;3.92;;;;;;;3.69;72.54;97784.69;5054118;28;20409;-65
2022/04/10 06:55:52;;;;;;;6.45;4.07;;;;;;;3.75;71.71;97782.06;5057356;28;20044;-65
2022/04/10 06:58:22;;;;;;;5.07;3.65;;;;;;;3.76;71.44;97785.56;5066499;28;20072;-65
2022/04/10 07:00:50;;;;;;;6.20;3.45;;;;;;;3.81;71.79;97782.28;5062643;28;20048;-66
2022/04/10 07:03:18;;;;;;;6.55;3.60;;;;;;;3.75;72.14;97784.75;5065254;28;20578;-65
2022/04/10 07:05:45;;;;;;;7.28;3.50;;;;;;;3.86;71.00;97788.72;5061027;28;20052;-65
2022/04/10 07:08:18;;;;;;;10.75;3.72;;;;;;;3.99;70.32;97787.13;5052854;28;20453;-65
2022/04/10 07:10:45;;;;;;;6.97;3.63;;;;;;;4.00;70.70;97789.59;5053522;28;20106;-65
2022/04/10 07:13:17;;;;;;;7.15;3.25;;;;;;;4.04;69.95;97784.66;5063873;28;20539;-65
2022/04/10 07:15:45;;;;;;;6.47;3.38;;;;;;;4.02;70.00;97789.41;5066488;28;20515;-65
2022/04/10 07:18:12;;;;;;;6.05;3.67;;;;;;;4.25;69.00;97789.09;5050388;28;20507;-65
2022/04/10 07:20:39;;;;;;;5.82;3.50;;;;;;;4.02;68.99;97792.09;5060895;28;20041;-53
2022/04/10 07:25:54;;;;;;;6.72;3.67;;;;;;;4.40;68.60;97783.56;5053533;28;20504;-49
2022/04/10 07:28:21;;;;;;;5.90;3.53;;;;;;;4.54;67.83;97784.41;5044925;28;20055;-53
2022/04/10 07:30:54;;;;;;;5.72;3.80;;;;;;;4.59;66.80;97788.34;5052356;28;20130;-55
2022/04/10 07:33:23;;;;;;;7.43;3.30;;;;;;;4.69;67.16;97791.47;5052242;28;20063;-54
2022/04/10 07:35:57;;;;;;;7.00;4.35;;;;;;;4.65;66.06;97788.34;5047377;28;20512;-53
2022/04/10 07:38:33;;;;;;;7.47;3.65;;;;;;;4.45;67.84;97793.69;5056827;28;20048;-52
2022/04/10 07:41:05;;;;;;;6.85;3.65;;;;;;;4.34;67.15;97797.78;5045608;28;20052;-51
2022/04/10 07:43:37;;;;;;;6.13;3.65;;;;;;;4.49;67.29;97800.28;5046288;28;20044;-53
2022/04/10 07:49:06;;;;;;;7.30;3.72;;;;;;;4.30;67.62;97807.25;5034605;28;20045;-65
2022/04/10 07:51:41;;;;;;;6.65;3.55;;;;;;;4.43;68.65;97799.25;5045139;28;20045;-65
2022/04/10 07:54:17;;;;;;;8.48;3.30;;;;;;;4.61;65.62;97816.63;5059083;28;20541;-65
2022/04/10 07:56:44;;;;;;;6.20;3.80;;;;;;;4.85;65.63;97811.72;5074329;28;20059;-65
2022/04/10 07:59:16;;;;;;;8.20;4.03;;;;;;;5.01;65.54;97807.81;5057963;28;20044;-65
2022/04/10 08:01:43;;;;;;;6.50;3.53;;;;;;;5.24;64.98;97808.44;5065623;28;20547;-65
2022/04/10 08:04:16;;;;;;;6.65;3.70;;;;;;;5.55;64.25;97817.72;5069315;28;20583;-66
2022/04/10 08:06:46;;;;;;;7.00;3.20;;;;;;;5.46;62.64;97817.13;5063491;28;20136;-65
2022/04/10 08:09:12;;;;;;;6.13;3.50;;;;;;;5.44;63.74;97822.69;5068854;28;20075;-65
2022/04/10 08:11:41;;;;;;;7.57;3.28;;;;;;;5.27;63.62;97826.84;5055194;28;20044;-65
2022/04/10 08:14:08;;;;;;;7.05;3.20;;;;;;;5.36;62.39;97827.44;5070098;28;20043;-65
2022/04/10 08:16:34;;;;;;;6.18;3.22;;;;;;;5.44;63.86;97821.88;5049516;28;20040;-65
2022/04/10 08:19:01;;;;;;;9.15;5.38;;;;;;;5.64;63.43;97835.28;5067798;28;20090;-65
2022/04/10 08:21:28;;;;;;;6.88;3.90;;;;;;;5.44;62.17;97824.56;5057890;28;20045;-65
2022/04/10 08:23:54;;;;;;;7.03;3.85;;;;;;;5.60;62.79;97837.56;5051685;28;20045;-65
2022/04/10 08:26:21;;;;;;;5.60;3.25;;;;;;;5.58;61.96;97844.19;5067068;28;20063;-65
2022/04/10 08:28:47;;;;;;;5.63;3.17;;;;;;;5.79;60.76;97839.63;5080376;28;20048;-65
2022/04/10 08:31:14;;;;;;;6.03;3.38;;;;;;;5.92;60.12;97841.44;5048687;28;20117;-65
2022/04/10 08:33:41;;;;;;;5.80;2.92;;;;;;;6.08;60.66;97830.25;5063363;28;20613;-65
2022/04/10 08:36:08;;;;;;;4.57;2.92;;;;;;;6.08;59.33;97838.31;5047520;28;20559;-66
2022/04/10 08:38:35;;;;;;;7.55;2.88;;;;;;;6.37;58.09;97846.91;5057999;28;20056;-66
2022/04/10 08:41:01;;;;;;;6.00;3.30;;;;;;;6.20;59.32;97843.06;5051420;28;20115;-65
2022/04/10 08:43:29;;;;;;;5.22;3.05;;;;;;;6.42;59.33;97840.91;5054828;28;20488;-65
2022/04/10 08:45:57;;;;;;;7.05;2.88;;;;;;;6.48;58.00;97852.66;5081685;28;20052;-65
2022/04/10 08:48:26;;;;;;;8.05;2.92;;;;;;;6.40;59.03;97848.34;5062675;28;20048;-66
2022/04/10 08:50:55;;;;;;;6.32;3.10;;;;;;;6.30;58.66;97853.38;5054332;28;20438;-65
2022/04/10 08:53:25;;;;;;;4.78;2.97;;;;;;;5.98;59.46;97854.84;5052445;28;20120;-65
2022/04/10 08:55:52;;;;;;;4.60;2.40;;;;;;;5.98;59.77;97852.16;5050968;28;20078;-65
2022/04/10 08:58:20;;;;;;;6.75;2.83;;;;;;;5.82;59.52;97856.13;5054797;28;20048;-66
2022/04/10 09:00:47;;;;;;;9.23;3.20;;;;;;;5.77;58.77;97853.25;5051739;28;20049;-65
2022/04/10 09:03:13;;;;;;;4.75;2.70;;;;;;;5.50;59.15;97858.66;5058342;28;20160;-66
2022/04/10 09:05:40;;;;;;;7.47;3.22;;;;;;;5.60;58.79;97852.84;5053361;28;20044;-65
2022/04/10 09:08:12;;;;;;;8.73;3.58;;;;;;;5.85;59.97;97852.19;5058435;28;20534;-66
2022/04/10 09:10:57;;;;;;;7.85;3.10;;;;;;;6.18;59.22;97853.19;5059028;28;20044;-66
2022/04/10 09:13:31;;;;;;;6.80;2.85;;;;;;;6.51;57.29;97854.94;5055962;28;20036;-65
2022/04/10 09:16:10;;;;;;;8.98;3.17;;;;;;;6.26;58.04;97850.25;5056483;28;20053;-66
2022/04/10 09:18:49;;;;;;;7.53;3.10;;;;;;;6.96;58.67;97853.28;5071293;28;20955;-65
2022/04/10 09:21:19;;;;;;;7.63;2.97;;;;;;;7.28;56.65;97848.69;5061423;28;20545;-66
2022/04/10 09:24:02;;;;;;;5.10;2.95;;;;;;;7.10;53.88;97846.75;5059584;28;20048;-65
2022/04/10 09:26:44;;;;;;;6.75;3.03;;;;;;;6.98;55.88;97856.56;5046722;28;20049;-70
2022/04/10 09:29:12;;;;;;;5.72;2.90;;;;;;;6.92;57.15;97854.75;5050592;28;20039;-65
2022/04/10 09:31:38;;;;;;;7.28;3.08;;;;;;;7.02;56.06;97855.09;5059748;28;20044;-65
2022/04/10 09:34:08;;;;;;;6.85;3.30;;;;;;;7.10;55.42;97854.81;5053251;28;20431;-65
2022/04/10 09:36:44;;;;;;;5.45;2.55;;;;;;;7.60;51.44;97847.81;5061700;28;20136;-67
2022/04/10 09:39:30;;;;;;;6.80;2.80;;;;;;;7.62;51.20;97856.50;5061075;28;20056;-65
2022/04/10 09:42:10;;;;;;;6.22;2.40;;;;;;;7.58;49.84;97847.22;5043848;28;20049;-65
2022/04/10 09:44:55;;;;;;;6.20;2.22;;;;;;;7.09;51.66;97845.09;5070793;28;20056;-65
2022/04/10 09:47:25;;;;;;;5.40;2.60;;;;;;;6.72;54.35;97861.88;5051598;28;20045;-64
2022/04/10 09:49:53;;;;;;;5.50;2.72;;;;;;;6.60;54.88;97861.72;5060919;28;20053;-64
2022/04/10 09:52:20;;;;;;;5.78;2.90;;;;;;;6.66;54.06;97860.03;5051057;28;20072;-65
2022/04/10 09:54:50;;;;;;;5.65;2.67;;;;;;;7.05;54.24;97869.97;5065892;28;20039;-65
2022/04/10 09:57:19;;;;;;;9.10;3.45;;;;;;;6.62;55.70;97858.81;5052355;28;20052;-64
2022/04/10 09:59:48;;;;;;;5.50;3.65;;;;;;;6.49;57.82;97863.22;5062753;28;20049;-64
2022/04/10 10:02:17;;;;;;;6.70;4.53;;;;;;;6.68;57.97;97862.53;5052340;28;20041;-65
2022/04/10 10:04:46;;;;;;;5.63;3.90;;;;;;;6.38;56.65;97864.72;5055443;28;20051;-66
2022/04/10 10:07:20;;;;;;;8.18;4.90;;;;;;;6.37;56.33;97868.44;5046802;28;20223;-66
2022/04/10 10:09:48;;;;;;;7.25;4.10;;;;;;;6.96;55.14;97866.75;5053535;28;20068;-66
2022/04/10 10:12:16;;;;;;;8.40;4.05;;;;;;;7.18;54.29;97861.00;5059433;28;20966;-66
2022/04/10 10:14:44;;;;;;;9.15;3.78;;;;;;;7.31;53.97;97860.06;5048494;28;20045;-66
2022/04/10 10:17:10;;;;;;;8.10;4.00;;;;;;;7.26;52.68;97863.44;5056087;28;20064;-66
2022/04/10 10:19:39;;;;;;;7.95;4.15;;;;;;;7.54;54.10;97878.34;5073160;28;20114;-66
2022/04/10 10:22:09;;;;;;;8.48;3.85;;;;;;;7.07;55.29;97878.69;5051026;28;20041;-66
2022/04/10 10:24:54;;;;;;;8.45;3.95;;;;;;;6.83;56.30;97881.91;5060611;28;20600;-65
2022/04/10 10:27:52;;;;;;;8.23;4.40;;;;;;;6.33;61.41;97882.50;5055723;28;20049;-64
2022/04/10 10:30:40;;;;;;;11.45;4.90;;;;;;;6.06;63.41;97874.53;5055409;28;20052;-66
2022/04/10 10:33:15;;;;;;;6.43;4.40;;;;;;;6.05;64.00;97884.44;5061227;28;20068;-65
2022/04/10 10:35:55;;;;;;;10.48;4.65;;;;;;;5.81;64.55;97881.38;5063891;28;20369;-66
2022/04/10 10:38:30;;;;;;;7.25;5.30;;;;;;;5.68;68.20;97878.69;5055007;28;20049;-65
2022/04/10 10:41:16;;;;;;;7.13;4.85;;;;;;;6.07;67.95;97878.84;5064762;28;20051;-66
2022/04/10 10:43:44;;;;;;;9.40;4.10;;;;;;;6.22;65.23;97876.75;5057318;28;20048;-65
2022/04/10 10:46:26;;;;;;;9.20;4.60;;;;;;;5.93;67.99;97876.16;5065652;28;20056;-64
2022/04/10 10:49:11;;;;;;;6.00;3.83;;;;;;;5.91;67.73;97866.66;5059796;28;20040;-65
2022/04/10 10:51:40;;;;;;;6.35;4.60;;;;;;;5.91;68.58;97864.81;5067047;28;20212;-66
2022/04/10 10:54:12;;;;;;;7.30;4.72;;;;;;;6.22;69.28;97865.16;5067295;28;20041;-65
2022/04/10 10:56:43;;;;;;;5.60;3.85;;;;;;;6.20;65.36;97859.19;5058594;28;20470;-65
2022/04/10 10:59:27;;;;;;;6.90;3.95;;;;;;;6.15;62.39;97851.75;5064423;28;20043;-65
2022/04/10 11:01:55;;;;;;;7.18;4.60;;;;;;;5.82;63.98;97850.75;5058910;28;20048;-65
2022/04/10 11:04:25;;;;;;;7.47;3.92;;;;;;;6.40;64.49;97850.22;5064984;28;20514;-64
2022/04/10 11:06:52;;;;;;;6.60;4.30;;;;;;;6.88;63.49;97848.94;5055197;28;20041;-65
2022/04/10 11:09:23;;;;;;;7.22;4.28;;;;;;;7.29;62.60;97834.19;5056445;28;20049;-65
2022/04/10 11:11:50;;;;;;;9.30;3.90;;;;;;;7.97;56.80;97844.38;5060002;28;20094;-65
2022/04/10 11:14:39;;;;;;;8.85;4.00;;;;;;;7.64;59.28;97842.81;5045703;28;20278;-65
2022/04/10 11:17:20;;;;;;;5.70;3.38;;;;;;;7.76;55.05;97851.00;5062134;28;20044;-65
2022/04/10 11:19:56;;;;;;;6.10;3.53;;;;;;;7.80;53.66;97842.25;5061377;28;20040;-64
2022/04/10 11:22:37;;;;;;;4.95;2.80;;;;;;;7.90;52.80;97846.31;5057922;28;20288;-66
2022/04/10 11:25:06;;;;;;;6.60;3.20;;;;;;;7.82;52.40;97842.03;5058703;28;20460;-66
2022/04/10 11:27:56;;;;;;;5.80;3.10;;;;;;;7.97;51.11;97840.84;5053386;28;20217;-66
2022/04/10 11:30:40;;;;;;;5.85;2.80;;;;;;;8.01;52.95;97844.75;5056166;28;20072;-67
2022/04/10 11:33:08;;;;;;;8.52;2.88;;;;;;;7.80;51.54;97844.09;5057416;28;20040;-66
2022/04/10 11:35:44;;;;;;;4.32;2.30;;;;;;;7.82;49.19;97855.50;5049368;28;20045;-66
2022/04/10 11:38:15;;;;;;;5.20;2.50;;;;;;;7.94;49.10;97844.81;5048211;28;20052;-67
2022/04/10 11:40:47;;;;;;;;;;;;;;;8.37;49.75;97845.78;5055105;28;20053;-67
2022/04/10 11:43:16;;;;;;;5.75;3.10;;;;;;;8.21;47.45;97841.81;5044880;28;19931;-65
2022/04/10 11:45:44;;;;;;;6.45;2.90;;;;;;;7.86;51.39;97842.41;5044253;28;20041;-66
2022/04/10 11:48:11;;;;;;;4.82;2.63;;;;;;;8.43;49.78;97836.78;5056517;28;20056;-66
2022/04/10 11:50:38;;;;;;;7.07;3.58;;;;;;;8.53;50.45;97835.47;5067949;28;20567;-67
2022/04/10 11:53:04;;;;;;;5.30;2.85;;;;;;;8.79;51.62;97838.84;5048228;28;20056;-66
2022/04/10 11:55:38;;;;;;;5.13;3.05;;;;;;;8.15;50.94;97829.25;5055635;28;20044;-66
2022/04/10 11:58:16;;;;;;;6.57;3.30;;;;;;;8.14;50.50;97833.81;5054209;28;20040;-66